Time;durP1;ratioP1;P1;durP2;ratioP2;P2;SDS_P1;SDS_P2;PMS_P1;PMS_P2;Temp;Humidity;BMP_temperature;BMP_pressure;BME280_temperature;BME280_humidity;BME280_pressure;Samples;Min_cycle;Max_cycle;Signal;HPM_P1;HPM_P2
2022/05/28 00:00:29;;;;;;;6.20;1.13;;;;;;;9.26;80.63;100009.95;3400630;80;98898;-86
2022/05/28 00:05:30;;;;;;;3.43;0.97;;;;;;;9.26;80.41;100000.34;3399434;85;98865;-87
2022/05/28 00:10:33;;;;;;;6.27;1.43;;;;;;;9.25;80.69;99994.65;3397431;85;98444;-86
2022/05/28 00:15:35;;;;;;;8.05;1.20;;;;;;;9.25;80.68;99997.97;3402776;84;98049;-85
2022/05/28 00:20:38;;;;;;;6.53;1.23;;;;;;;9.23;80.64;99997.56;3399379;84;98403;-86
2022/05/28 00:25:39;;;;;;;5.97;1.27;;;;;;;9.22;80.60;99994.02;3396147;84;98601;-88
2022/05/28 00:30:39;;;;;;;4.13;0.63;;;;;;;9.25;80.84;99988.36;3382067;85;98756;-87
2022/05/28 00:35:40;;;;;;;6.10;1.00;;;;;;;9.28;80.40;99984.87;3435043;82;98752;-85
2022/05/28 00:40:48;;;;;;;4.83;0.90;;;;;;;9.32;80.54;99984.33;3444890;83;98686;-88
2022/05/28 00:45:54;;;;;;;6.63;0.90;;;;;;;9.35;80.31;99976.11;3446163;83;98934;-90
2022/05/28 00:51:00;;;;;;;3.27;0.78;;;;;;;9.39;80.55;99976.14;3447395;83;98023;-87
2022/05/28 00:56:04;;;;;;;6.00;0.93;;;;;;;9.41;80.12;99981.45;3439878;83;98716;-87
2022/05/28 01:01:07;;;;;;;5.42;1.10;;;;;;;9.41;80.50;99973.79;3444443;81;98483;-86
2022/05/28 01:06:19;;;;;;;5.43;0.90;;;;;;;9.42;80.38;99971.24;3458150;79;98795;-86
2022/05/28 01:11:37;;;;;;;4.05;0.80;;;;;;;9.38;80.68;99976.70;3425175;82;98748;-88
2022/05/28 01:16:49;;;;;;;4.00;1.00;;;;;;;9.33;80.97;99968.81;3451020;81;98656;-87
2022/05/28 01:22:05;;;;;;;3.40;0.93;;;;;;;9.27;81.04;99969.56;3457202;83;98345;-83
2022/05/28 01:27:16;;;;;;;6.35;1.07;;;;;;;9.22;80.73;99971.28;3394711;84;33369;-86
2022/05/28 01:32:19;;;;;;;6.97;0.88;;;;;;;9.14;80.91;99958.07;3375186;85;98352;-85
2022/05/28 01:37:21;;;;;;;5.03;0.67;;;;;;;9.06;81.11;99961.90;3361980;84;98184;-89
2022/05/28 01:42:23;;;;;;;3.17;0.80;;;;;;;8.99;81.24;99957.72;3447551;81;98395;-88
2022/05/28 01:47:25;;;;;;;5.70;0.80;;;;;;;8.91;81.68;99951.97;3388913;85;98327;-87
2022/05/28 01:52:28;;;;;;;2.92;0.78;;;;;;;8.85;81.48;99941.70;3374264;84;98590;-81
2022/05/28 01:57:29;;;;;;;5.47;0.90;;;;;;;8.77;81.98;99942.81;3394669;84;30442;-86
2022/05/28 02:02:30;;;;;;;8.93;1.40;;;;;;;8.70;81.86;99938.60;3393056;85;98241;-86
2022/05/28 02:07:32;;;;;;;7.77;1.47;;;;;;;8.63;81.46;99937.97;3411527;84;98124;-84
2022/05/28 02:12:49;;;;;;;4.00;1.00;;;;;;;8.59;81.40;99926.73;3356039;83;98383;-84
2022/05/28 02:17:58;;;;;;;6.85;1.15;;;;;;;8.52;81.51;99931.58;3392377;84;98384;-84
2022/05/28 02:23:17;;;;;;;5.03;1.73;;;;;;;8.47;81.75;99931.11;3389747;85;98267;-87
2022/05/28 02:28:22;;;;;;;5.97;1.15;;;;;;;8.44;81.48;99935.95;3405940;84;98392;-85
2022/05/28 02:33:22;;;;;;;7.08;1.57;;;;;;;8.40;81.91;99927.69;3395250;85;98560;-89
2022/05/28 02:38:22;;;;;;;8.03;1.20;;;;;;;8.38;82.03;99932.77;3462216;82;98558;-88
2022/05/28 02:43:24;;;;;;;7.43;1.33;;;;;;;8.38;82.51;99932.77;3464366;82;98622;-88
2022/05/28 02:48:25;;;;;;;7.17;1.07;;;;;;;8.38;82.43;99921.80;3452700;83;98387;-86
2022/05/28 02:53:25;;;;;;;8.17;1.27;;;;;;;8.37;82.48;99924.91;3434417;83;98663;-88
2022/05/28 02:58:27;;;;;;;8.27;1.60;;;;;;;8.35;82.40;99923.91;3453071;83;98332;-88
2022/05/28 03:03:28;;;;;;;6.17;1.03;;;;;;;8.33;82.24;99919.96;3439885;84;98833;-90
2022/05/28 03:08:29;;;;;;;6.07;1.00;;;;;;;8.30;82.50;99915.23;3419934;83;98235;-86
2022/05/28 03:13:30;;;;;;;8.87;1.63;;;;;;;8.28;82.64;99924.44;3417784;83;98190;-88
2022/05/28 03:18:31;;;;;;;5.60;1.10;;;;;;;8.27;82.63;99925.00;3394736;85;98796;-87
2022/05/28 03:23:32;;;;;;;7.58;2.10;;;;;;;8.28;82.67;99914.84;3404946;84;98393;-86
2022/05/28 03:28:33;;;;;;;7.10;1.27;;;;;;;8.29;82.92;99914.44;3446830;82;98577;-86
2022/05/28 03:33:34;;;;;;;6.85;1.32;;;;;;;8.31;82.83;99912.13;3450357;84;98026;-87
2022/05/28 03:38:36;;;;;;;6.90;1.80;;;;;;;8.33;82.90;99918.59;3453636;83;98048;-89
2022/05/28 03:43:37;;;;;;;7.10;1.00;;;;;;;8.34;83.39;99916.08;3451895;82;98263;-88
2022/05/28 03:48:40;;;;;;;7.77;1.67;;;;;;;8.33;83.33;99935.04;3371992;83;97520;-89
2022/05/28 03:53:41;;;;;;;4.87;1.37;;;;;;;8.35;83.51;99926.65;3407774;84;98542;-87
2022/05/28 03:58:42;;;;;;;5.08;1.50;;;;;;;8.40;83.79;99928.29;3405373;84;98696;-87
2022/05/28 04:03:43;;;;;;;5.73;1.10;;;;;;;8.44;83.73;99923.61;3405225;84;98056;-87
2022/05/28 04:08:44;;;;;;;8.93;1.50;;;;;;;8.51;83.75;99929.20;3431633;84;98051;-88
2022/05/28 04:13:46;;;;;;;7.70;1.50;;;;;;;8.53;83.66;99930.41;3466717;82;98471;-89
2022/05/28 04:18:47;;;;;;;4.33;1.13;;;;;;;8.55;83.76;99921.20;3399262;84;98331;-87
2022/05/28 04:23:48;;;;;;;8.00;1.50;;;;;;;8.62;83.56;99925.39;3455095;83;98582;-89
2022/05/28 04:28:48;;;;;;;5.50;1.20;;;;;;;8.69;83.72;99921.38;3444986;84;98350;-88
2022/05/28 04:33:49;;;;;;;7.40;1.40;;;;;;;8.77;83.45;99927.73;3447154;83;98263;-85
2022/05/28 04:38:50;;;;;;;7.53;1.53;;;;;;;8.86;83.70;99910.35;3455438;84;35535;-89
2022/05/28 04:43:51;;;;;;;10.28;1.70;;;;;;;8.95;83.25;99909.47;3431036;83;98433;-89
2022/05/28 04:48:52;;;;;;;5.80;1.60;;;;;;;9.04;82.95;99910.72;3454978;84;98584;-88
2022/05/28 04:53:53;;;;;;;9.63;1.33;;;;;;;9.13;82.55;99897.48;3412210;84;98646;-84
2022/05/28 04:58:54;;;;;;;9.03;1.60;;;;;;;9.22;81.94;99896.55;3431183;83;99292;-88
2022/05/28 05:03:55;;;;;;;7.80;1.73;;;;;;;9.34;81.70;99896.84;3430741;84;98651;-89
2022/05/28 05:08:56;;;;;;;8.00;1.53;;;;;;;9.44;81.37;99894.16;3449573;83;32563;-86
2022/05/28 05:13:57;;;;;;;6.07;1.23;;;;;;;9.51;81.05;99901.10;3443954;84;98219;-88
2022/05/28 05:18:58;;;;;;;6.33;1.50;;;;;;;9.54;80.69;99898.95;3423439;81;98409;-89
2022/05/28 05:23:58;;;;;;;8.88;1.50;;;;;;;9.60;80.50;99880.93;3420716;84;98463;-87
2022/05/28 05:28:59;;;;;;;8.73;1.50;;;;;;;9.76;80.22;99883.39;3429943;84;98412;-89
2022/05/28 05:34:00;;;;;;;8.17;1.80;;;;;;;9.98;80.38;99877.59;3412883;84;98670;-89
2022/05/28 05:39:01;;;;;;;5.70;1.33;;;;;;;10.35;79.86;99878.78;3442172;84;27703;-88
2022/05/28 05:44:02;;;;;;;9.47;1.33;;;;;;;10.69;78.91;99879.42;3452374;82;99207;-89
2022/05/28 05:49:04;;;;;;;9.60;3.10;;;;;;;11.02;78.34;99871.41;3416383;83;98694;-87
2022/05/28 05:54:05;;;;;;;11.40;1.70;;;;;;;11.21;77.06;99873.18;3414124;84;98687;-86
2022/05/28 05:59:06;;;;;;;8.73;1.80;;;;;;;11.26;76.16;99882.43;3461567;84;98978;-87
2022/05/28 06:04:08;;;;;;;6.83;1.57;;;;;;;11.24;75.96;99881.25;3448873;83;98681;-84
2022/05/28 06:09:09;;;;;;;6.40;1.33;;;;;;;11.21;75.54;99886.95;3458184;83;25998;-88
2022/05/28 06:14:10;;;;;;;9.83;1.47;;;;;;;11.18;74.75;99880.84;3432090;84;99688;-87
2022/05/28 06:19:11;;;;;;;8.93;1.27;;;;;;;11.14;74.54;99874.57;3426350;83;98603;-89
2022/05/28 06:24:12;;;;;;;8.90;1.60;;;;;;;11.09;74.77;99872.20;3433507;84;98657;-83
2022/05/28 06:29:13;;;;;;;5.70;1.30;;;;;;;11.03;75.50;99877.91;3438122;83;98619;-88
2022/05/28 06:34:14;;;;;;;9.40;1.37;;;;;;;11.05;76.37;99877.49;3424023;83;98738;-89
2022/05/28 06:39:15;;;;;;;8.10;1.27;;;;;;;11.07;74.52;99881.44;3427357;84;26226;-84
2022/05/28 06:44:16;;;;;;;5.17;1.17;;;;;;;11.19;74.34;99874.17;3420269;82;98703;-83
2022/05/28 06:49:17;;;;;;;7.05;1.20;;;;;;;11.37;73.98;99874.14;3426510;84;98899;-83
2022/05/28 06:54:18;;;;;;;7.13;1.40;;;;;;;11.46;72.51;99860.76;3452561;83;98500;-85
2022/05/28 06:59:20;;;;;;;8.50;1.40;;;;;;;11.52;72.06;99860.55;3458660;81;99022;-82
2022/05/28 07:04:20;;;;;;;3.35;1.02;;;;;;;11.67;72.21;99868.41;3376780;83;99111;-84
2022/05/28 07:09:21;;;;;;;3.30;1.10;;;;;;;11.88;70.20;99871.72;3401273;85;33283;-83
2022/05/28 07:14:22;;;;;;;5.57;1.10;;;;;;;12.13;68.87;99869.06;3368080;85;98992;-83
2022/05/28 07:19:23;;;;;;;9.80;1.50;;;;;;;12.20;67.17;99848.33;3390561;84;98516;-82
2022/05/28 07:24:24;;;;;;;6.57;1.63;;;;;;;12.26;67.84;99855.61;3380520;83;98973;-82
2022/05/28 07:29:25;;;;;;;7.67;1.23;;;;;;;12.23;69.80;99857.78;3387598;85;99143;-84
2022/05/28 07:34:26;;;;;;;4.73;1.40;;;;;;;12.09;70.12;99864.73;3432086;83;99243;-83
2022/05/28 07:39:27;;;;;;;8.13;1.37;;;;;;;11.99;70.67;99860.06;3456816;84;33233;-83
2022/05/28 07:44:28;;;;;;;4.93;1.20;;;;;;;11.89;72.06;99838.83;3451102;83;98796;-83
2022/05/28 07:49:29;;;;;;;7.30;1.55;;;;;;;11.87;73.10;99844.73;3438987;84;98962;-82
2022/05/28 07:54:30;;;;;;;5.80;1.60;;;;;;;11.96;74.17;99834.66;3427172;83;99241;-82
2022/05/28 07:59:31;;;;;;;7.57;1.93;;;;;;;12.09;72.67;99837.14;3454760;84;99154;-80
2022/05/28 08:04:32;;;;;;;4.73;1.40;;;;;;;12.39;71.02;99845.67;3460437;83;98918;-82
2022/05/28 08:09:33;;;;;;;7.57;1.43;;;;;;;12.63;71.37;99830.92;3461856;83;29907;-82
2022/05/28 08:14:34;;;;;;;4.27;1.10;;;;;;;13.03;69.78;99829.66;3383040;85;98964;-83
2022/05/28 08:19:35;;;;;;;4.70;1.10;;;;;;;13.45;68.40;99832.63;3405429;84;98746;-83
2022/05/28 08:24:37;;;;;;;4.27;1.20;;;;;;;13.85;67.02;99818.75;3451628;83;98968;-83
2022/05/28 08:29:38;;;;;;;5.90;1.25;;;;;;;14.26;66.27;99824.20;3451932;82;99203;-84
2022/05/28 08:34:41;;;;;;;6.10;1.40;;;;;;;14.57;64.57;99822.38;3472788;81;98943;-83
2022/05/28 08:39:42;;;;;;;4.13;1.03;;;;;;;14.80;63.69;99834.89;3425947;84;26033;-82
2022/05/28 08:44:43;;;;;;;4.57;1.87;;;;;;;14.87;63.81;99836.77;3372696;85;98757;-82
2022/05/28 08:49:46;;;;;;;7.30;2.20;;;;;;;14.97;63.45;99846.28;3456691;82;99117;-84
2022/05/28 08:54:57;;;;;;;6.03;1.50;;;;;;;15.04;61.11;99848.94;3396392;84;98501;-84
2022/05/28 09:00:11;;;;;;;8.18;1.50;;;;;;;14.93;58.63;99851.71;3390300;84;99094;-82
2022/05/28 09:05:25;;;;;;;6.10;1.20;;;;;;;14.89;60.71;99854.52;3408942;83;99016;-83
2022/05/28 09:10:31;;;;;;;3.98;0.98;;;;;;;14.83;59.55;99852.04;3408379;84;99328;-81
2022/05/28 09:15:33;;;;;;;;;;;;;;;14.80;59.11;99864.56;3383462;84;98263;-82
2022/05/28 09:20:38;;;;;;;4.28;1.17;;;;;;;14.93;57.65;99866.95;3416575;85;85440;-80
2022/05/28 09:25:43;;;;;;;4.97;1.17;;;;;;;14.99;57.13;99874.97;3405987;84;98509;-83
2022/05/28 09:30:55;;;;;;;4.78;1.17;;;;;;;14.93;57.52;99874.65;3374918;85;99135;-82
2022/05/28 09:36:12;;;;;;;6.50;1.25;;;;;;;14.81;57.75;99873.05;3398930;85;99370;-81
2022/05/28 09:41:30;;;;;;;5.33;1.07;;;;;;;14.75;56.63;99876.11;3367088;85;100172;-81
2022/05/28 09:46:36;;;;;;;4.83;1.07;;;;;;;14.65;55.85;99863.20;3405622;84;99439;-82
2022/05/28 09:51:37;;;;;;;6.35;1.75;;;;;;;14.54;56.98;99869.48;3398965;85;98690;-81
2022/05/28 09:56:39;;;;;;;6.12;1.20;;;;;;;14.78;56.45;99872.52;3400670;85;99023;-81
2022/05/28 10:01:45;;;;;;;3.90;1.12;;;;;;;15.25;57.53;99865.22;3396503;84;99087;-83
2022/05/28 10:06:50;;;;;;;5.17;1.22;;;;;;;15.44;54.45;99877.02;3446465;84;99323;-80
2022/05/28 10:11:58;;;;;;;4.33;1.12;;;;;;;15.27;55.39;99878.67;3407504;84;99247;-81
2022/05/28 10:17:03;;;;;;;4.20;1.42;;;;;;;15.28;53.77;99875.48;3409807;84;99278;-83
2022/05/28 10:22:08;;;;;;;4.03;1.00;;;;;;;15.20;54.32;99873.25;3437541;84;98585;-80
2022/05/28 10:27:23;;;;;;;5.58;1.42;;;;;;;15.08;55.00;99869.07;3440329;84;33445;-83
2022/05/28 10:32:38;;;;;;;5.77;1.17;;;;;;;15.32;55.15;99856.78;3387811;84;99179;-82
2022/05/28 10:37:39;;;;;;;8.68;1.30;;;;;;;15.91;55.03;99865.25;3438549;84;99123;-81
2022/05/28 10:42:40;;;;;;;6.35;1.25;;;;;;;16.10;53.61;99867.24;3426123;83;99274;-78
2022/05/28 10:48:20;;;;;;;5.93;2.03;;;;;;;16.38;53.19;99858.31;3400624;84;99267;-82
2022/05/28 10:53:51;;;;;;;5.25;1.40;;;;;;;16.88;52.25;99843.51;3380959;85;99098;-80
2022/05/28 10:59:30;;;;;;;6.25;1.20;;;;;;;17.32;49.56;99833.86;3367548;84;99103;-82
2022/05/28 11:04:58;;;;;;;6.03;1.80;;;;;;;17.34;47.60;99857.08;3328822;85;98780;-79
2022/05/28 11:10:14;;;;;;;7.30;1.30;;;;;;;17.08;49.07;99849.19;3317065;86;99101;-81
2022/05/28 11:15:29;;;;;;;4.53;1.30;;;;;;;16.84;49.04;99858.88;3319798;86;98711;-78
2022/05/28 11:20:45;;;;;;;4.35;1.25;;;;;;;16.50;48.58;99856.30;3291026;86;99422;-78
2022/05/28 11:26:14;;;;;;;9.58;1.20;;;;;;;16.30;48.84;99872.95;3325028;86;98463;-79
2022/05/28 11:31:45;;;;;;;6.10;0.98;;;;;;;15.97;49.91;99868.48;3310370;86;99173;-75
2022/05/28 11:36:56;;;;;;;7.58;1.30;;;;;;;15.88;49.52;99889.68;3312690;85;98803;-78
2022/05/28 11:42:20;;;;;;;3.77;1.40;;;;;;;15.75;51.05;99869.33;3285272;86;98681;-77
2022/05/28 11:47:48;;;;;;;6.25;1.10;;;;;;;15.92;52.02;99880.70;3313335;86;99243;-78
2022/05/28 11:53:06;;;;;;;7.47;1.32;;;;;;;15.90;50.96;99884.48;3268606;85;99094;-78
2022/05/28 11:58:21;;;;;;;9.30;1.55;;;;;;;15.49;51.07;99893.15;3356051;84;99199;-82
2022/05/28 12:03:26;;;;;;;6.28;1.35;;;;;;;15.19;54.08;99904.92;3423452;83;98881;-79
2022/05/28 12:08:33;;;;;;;3.40;1.10;;;;;;;14.76;55.18;99924.77;3421275;83;98885;-80
2022/05/28 12:13:43;;;;;;;5.83;1.22;;;;;;;14.29;59.75;99932.71;3405881;84;99097;-82
2022/05/28 12:19:07;;;;;;;8.18;1.80;;;;;;;13.99;62.58;99949.21;3401962;83;99194;-79
2022/05/28 12:24:19;;;;;;;6.80;1.30;;;;;;;13.69;63.87;99944.98;3393332;84;98833;-82
2022/05/28 12:29:38;;;;;;;6.12;1.65;;;;;;;13.45;65.96;99931.55;3376305;84;99041;-81
2022/05/28 12:34:39;;;;;;;8.38;1.60;;;;;;;13.37;66.39;99952.17;3330561;85;98674;-82
2022/05/28 12:40:05;;;;;;;7.97;1.90;;;;;;;13.29;67.93;99955.36;3405497;83;32131;-82
2022/05/28 12:45:26;;;;;;;3.83;1.43;;;;;;;13.15;68.78;99972.06;3411806;83;98638;-81
2022/05/28 12:50:32;;;;;;;7.83;1.50;;;;;;;12.98;70.45;99970.20;3425972;83;98899;-80
2022/05/28 12:55:37;;;;;;;;;;;;;;;12.88;71.75;99970.43;3407682;83;98658;-86
2022/05/28 13:00:57;;;;;;;6.62;1.82;;;;;;;12.73;74.41;99975.03;3424842;83;85117;-82
2022/05/28 13:06:22;;;;;;;4.83;1.43;;;;;;;12.41;73.43;99978.52;3393184;84;98687;-83
2022/05/28 13:11:49;;;;;;;7.50;1.77;;;;;;;12.27;75.27;99978.58;3417076;83;99047;-82
2022/05/28 13:17:11;;;;;;;5.30;1.60;;;;;;;12.15;76.02;99973.50;3335117;85;99136;-82
2022/05/28 13:22:41;;;;;;;9.35;3.35;;;;;;;12.12;76.89;99968.76;3276563;87;98703;-83
2022/05/28 13:28:07;;;;;;;6.47;2.07;;;;;;;12.31;78.00;99962.80;3357546;85;28408;-82
2022/05/28 13:33:12;;;;;;;7.63;2.00;;;;;;;12.42;77.99;99962.94;3338669;85;98714;-82
2022/05/28 13:38:18;;;;;;;4.23;1.60;;;;;;;12.61;77.60;99958.92;3368239;85;98836;-84
2022/05/28 13:43:24;;;;;;;5.30;1.50;;;;;;;12.88;78.60;99954.44;3373192;85;98860;-85
2022/05/28 13:48:27;;;;;;;7.22;1.90;;;;;;;13.15;77.08;99953.52;3277054;87;99073;-82
2022/05/28 13:53:35;;;;;;;5.07;1.67;;;;;;;13.34;75.14;99950.79;3296430;86;98746;-83
2022/05/28 13:58:41;;;;;;;8.40;1.80;;;;;;;13.68;76.00;99944.19;3333135;85;98680;-80
2022/05/28 14:03:42;;;;;;;10.27;1.93;;;;;;;13.91;73.55;99938.81;3352509;85;98603;-82
2022/05/28 14:08:47;;;;;;;4.87;1.77;;;;;;;14.04;73.23;99933.55;3333616;86;99155;-83
2022/05/28 14:13:52;;;;;;;6.37;1.63;;;;;;;14.10;70.23;99934.66;3302269;86;98969;-81
2022/05/28 14:19:00;;;;;;;8.08;1.75;;;;;;;14.38;71.05;99949.62;3329682;86;98784;-80
2022/05/28 14:24:21;;;;;;;5.00;1.20;;;;;;;14.52;68.46;99948.05;3355009;85;98785;-81
2022/05/28 14:29:30;;;;;;;7.77;1.60;;;;;;;14.46;67.66;99955.23;3342365;86;98718;-85
2022/05/28 14:34:32;;;;;;;12.80;2.92;;;;;;;14.35;67.57;99959.53;3345136;84;98698;-84
2022/05/28 14:39:47;;;;;;;12.20;2.62;;;;;;;14.27;68.08;99970.48;3327583;86;33513;-83
2022/05/28 14:44:48;;;;;;;8.23;1.52;;;;;;;14.09;69.85;100014.73;3300690;86;99040;-83
2022/05/28 14:49:54;;;;;;;6.70;1.63;;;;;;;13.81;72.48;100021.91;3336479;86;98757;-86
2022/05/28 14:54:58;;;;;;;;;;;;;;;13.35;73.72;100009.05;3358708;85;99072;-87
2022/05/28 15:00:04;;;;;;;4.80;1.52;;;;;;;12.91;74.94;99973.75;3365925;85;84340;-86
2022/05/28 15:05:23;;;;;;;3.03;1.30;;;;;;;12.73;74.44;99977.79;3364861;84;98743;-87
2022/05/28 15:10:41;;;;;;;2.67;1.00;;;;;;;12.68;75.77;99969.92;3356168;85;98710;-85
2022/05/28 15:15:43;;;;;;;3.07;1.30;;;;;;;12.70;75.46;99971.09;3333572;85;98168;-86
2022/05/28 15:20:44;;;;;;;9.33;2.63;;;;;;;12.71;76.84;99967.14;3347088;85;98729;-83
2022/05/28 15:25:47;;;;;;;8.30;2.55;;;;;;;12.76;77.00;99948.77;3355014;86;98434;-82
2022/05/28 15:30:48;;;;;;;7.07;1.63;;;;;;;12.90;76.33;99948.70;3361456;85;98668;-81
2022/05/28 15:41:14;;;;;;;6.00;1.65;;;;;;;13.16;77.02;99955.09;3366699;85;99189;-82
2022/05/28 15:46:15;;;;;;;6.05;1.85;;;;;;;13.31;77.06;99959.30;3348419;85;98967;-82
2022/05/28 15:51:16;;;;;;;8.10;1.67;;;;;;;13.22;77.11;99930.55;3331762;86;98694;-82
2022/05/28 15:56:17;;;;;;;8.10;1.73;;;;;;;13.49;76.75;99950.88;3345979;86;98637;-81
2022/05/28 16:01:25;;;;;;;12.40;2.37;;;;;;;13.63;77.19;99946.62;3291539;86;98767;-81
2022/05/28 16:06:26;;;;;;;6.00;2.20;;;;;;;13.75;76.30;99957.17;3327986;86;98907;-81
2022/05/28 16:11:37;;;;;;;7.60;1.92;;;;;;;13.75;75.34;99956.58;3307702;86;99074;-83
2022/05/28 16:16:38;;;;;;;6.78;2.02;;;;;;;13.75;75.35;99956.58;3300789;86;99175;-82
2022/05/28 16:21:40;;;;;;;7.20;2.47;;;;;;;13.81;75.60;99958.30;3317865;86;99125;-81
2022/05/28 16:26:41;;;;;;;8.18;3.02;;;;;;;13.83;75.13;99960.04;3364184;84;97767;-81
2022/05/28 16:31:43;;;;;;;5.97;2.00;;;;;;;13.85;74.83;99968.73;3316684;83;98714;-79
2022/05/28 16:36:45;;;;;;;10.98;2.30;;;;;;;13.90;74.90;99968.29;3356748;85;98913;-81
2022/05/28 16:41:47;;;;;;;9.68;2.40;;;;;;;13.87;74.43;99974.63;3271342;87;99002;-80
2022/05/28 16:46:48;;;;;;;6.97;2.33;;;;;;;13.87;74.47;99971.28;3294901;87;98693;-81
2022/05/28 16:51:49;;;;;;;9.13;2.33;;;;;;;13.89;73.79;99969.49;3346954;86;98850;-81
2022/05/28 16:56:50;;;;;;;8.63;2.30;;;;;;;13.85;73.67;99970.88;3324692;87;98849;-80
2022/05/28 17:01:51;;;;;;;9.07;2.67;;;;;;;13.86;73.05;99971.68;3349512;84;98918;-81
2022/05/28 17:06:54;;;;;;;9.87;2.20;;;;;;;13.84;73.15;99969.31;3392979;85;98715;-81
2022/05/28 17:11:56;;;;;;;10.00;2.47;;;;;;;13.85;73.12;99966.73;3385080;85;98975;-81
2022/05/28 17:16:57;;;;;;;6.57;2.30;;;;;;;13.88;73.35;99967.89;3385097;85;98880;-81
2022/05/28 17:21:58;;;;;;;11.60;3.10;;;;;;;13.90;73.43;99971.83;3387562;85;99238;-81
2022/05/28 17:26:59;;;;;;;6.70;2.30;;;;;;;13.88;72.12;99968.69;3414064;85;98771;-81
2022/05/28 17:32:07;;;;;;;5.83;1.77;;;;;;;13.87;71.97;99978.20;3387517;85;98447;-82
2022/05/28 17:37:14;;;;;;;8.83;2.13;;;;;;;13.88;72.28;99978.96;3384874;85;98566;-81
2022/05/28 17:42:15;;;;;;;10.53;2.62;;;;;;;13.90;72.17;99977.36;3374048;85;99080;-80
2022/05/28 17:47:19;;;;;;;9.47;2.90;;;;;;;13.92;71.68;99983.28;3440200;84;99356;-82
2022/05/28 17:52:21;;;;;;;7.67;2.13;;;;;;;13.92;71.78;99986.64;3386488;85;98787;-81
2022/05/28 17:57:22;;;;;;;11.28;3.52;;;;;;;13.92;71.94;99984.67;3434847;84;33258;-82
2022/05/28 18:02:33;;;;;;;7.03;1.93;;;;;;;13.89;71.58;99989.62;3395065;85;98912;-81
2022/05/28 18:07:33;;;;;;;9.63;3.47;;;;;;;13.87;71.90;99990.64;3383398;85;98587;-80
2022/05/28 18:12:35;;;;;;;8.67;2.80;;;;;;;13.85;71.94;99990.86;3423009;84;99034;-80
2022/05/28 18:17:49;;;;;;;12.63;2.93;;;;;;;13.79;71.79;100002.95;3421318;84;98761;-81
2022/05/28 18:22:52;;;;;;;8.63;2.20;;;;;;;13.75;71.66;100004.19;3383136;84;99436;-82
2022/05/28 18:27:54;;;;;;;8.23;2.67;;;;;;;13.70;71.49;100004.62;3418754;85;33703;-81
2022/05/28 18:32:56;;;;;;;13.43;2.90;;;;;;;13.60;71.18;100017.92;3414258;84;99056;-81
2022/05/28 18:37:59;;;;;;;8.77;2.63;;;;;;;13.52;70.97;100025.48;3419186;85;99247;-80
2022/05/28 18:43:02;;;;;;;8.80;2.47;;;;;;;13.44;70.99;100030.09;3395016;84;99271;-81
2022/05/28 18:48:05;;;;;;;9.48;2.15;;;;;;;13.39;70.93;100036.05;3411346;84;98852;-81
2022/05/28 18:58:27;;;;;;;9.70;3.15;;;;;;;13.18;70.66;100036.97;3405708;84;98869;-82
2022/05/28 19:03:32;;;;;;;7.47;1.70;;;;;;;13.06;70.89;100060.92;3398109;84;98849;-82
2022/05/28 19:08:34;;;;;;;5.87;1.80;;;;;;;12.95;71.78;100072.58;3423328;84;98693;-81
2022/05/28 19:13:36;;;;;;;4.53;1.82;;;;;;;12.82;72.91;100081.70;3439825;84;99009;-82
2022/05/28 19:18:37;;;;;;;5.22;1.50;;;;;;;12.68;73.39;100088.06;3386470;84;99196;-83
2022/05/28 19:23:38;;;;;;;6.13;1.30;;;;;;;12.55;74.25;100091.06;3404890;83;98812;-82
2022/05/28 19:28:39;;;;;;;5.83;1.70;;;;;;;12.42;74.77;100098.78;3408314;84;98757;-81
2022/05/28 19:33:40;;;;;;;8.53;1.53;;;;;;;12.34;74.87;100102.72;3384077;84;99091;-83
2022/05/28 19:38:41;;;;;;;6.87;1.63;;;;;;;12.26;75.06;100108.06;3394917;83;98755;-82
2022/05/28 19:43:42;;;;;;;6.40;1.80;;;;;;;12.22;75.41;100117.70;3394675;84;99346;-83
2022/05/28 19:48:43;;;;;;;6.40;1.83;;;;;;;12.17;76.04;100125.60;3368011;84;99271;-82
2022/05/28 19:53:45;;;;;;;6.50;1.60;;;;;;;12.09;76.53;100128.14;3401441;84;99242;-81
2022/05/28 19:58:46;;;;;;;8.73;2.10;;;;;;;12.01;76.77;100136.23;3411511;84;99295;-83
2022/05/28 20:03:47;;;;;;;4.15;1.47;;;;;;;11.92;77.18;100131.69;3412347;84;98937;-82
2022/05/28 20:08:48;;;;;;;4.70;1.50;;;;;;;11.84;77.65;100128.73;3389112;84;98644;-82
2022/05/28 20:13:50;;;;;;;6.67;1.70;;;;;;;11.79;77.72;100131.88;3399853;84;98959;-82
2022/05/28 20:18:51;;;;;;;6.90;1.60;;;;;;;11.73;78.05;100132.07;3415912;84;98844;-83
2022/05/28 20:23:53;;;;;;;6.63;1.90;;;;;;;11.68;77.76;100125.56;3387523;84;98980;-82
2022/05/28 20:28:55;;;;;;;7.43;2.40;;;;;;;11.66;77.67;100125.18;3415909;84;99333;-82
2022/05/28 20:33:56;;;;;;;4.42;1.65;;;;;;;11.63;77.53;100130.08;3406305;84;99111;-82
2022/05/28 20:38:58;;;;;;;9.03;2.20;;;;;;;11.62;77.82;100123.77;3408013;84;99123;-82
2022/05/28 20:44:00;;;;;;;3.33;1.20;;;;;;;11.61;77.72;100126.33;3399453;84;99016;-82
2022/05/28 20:49:03;;;;;;;5.60;1.40;;;;;;;11.59;77.81;100122.38;3352665;84;99169;-83
2022/05/28 20:54:07;;;;;;;5.80;1.77;;;;;;;11.58;77.99;100134.56;3371427;85;99152;-81
2022/05/28 20:59:08;;;;;;;6.67;1.80;;;;;;;11.52;78.13;100145.20;3377753;85;99058;-83
2022/05/28 21:04:09;;;;;;;4.83;1.20;;;;;;;11.44;79.25;100143.58;3373836;85;98642;-82
2022/05/28 21:09:12;;;;;;;4.27;0.90;;;;;;;11.39;79.99;100149.47;3392706;84;99065;-80
2022/05/28 21:14:15;;;;;;;3.00;0.90;;;;;;;11.31;80.52;100140.99;3384842;85;98771;-82
2022/05/28 21:19:21;;;;;;;3.27;0.67;;;;;;;11.20;80.72;100134.66;3403759;84;99310;-82
2022/05/28 21:24:23;;;;;;;1.00;0.40;;;;;;;11.15;80.98;100136.41;3385416;84;98911;-83
2022/05/28 21:34:44;;;;;;;3.77;1.07;;;;;;;11.06;81.30;100148.36;3381352;85;98835;-83
2022/05/28 21:39:45;;;;;;;7.57;2.00;;;;;;;10.98;81.91;100145.38;3441172;84;29611;-83
2022/05/28 21:44:46;;;;;;;11.93;2.37;;;;;;;10.94;82.44;100141.81;3404698;84;98968;-84
2022/05/28 21:49:50;;;;;;;7.10;1.90;;;;;;;10.87;83.10;100140.41;3421364;84;98990;-83
2022/05/28 21:54:54;;;;;;;4.07;1.80;;;;;;;10.80;83.55;100131.32;3396090;84;98843;-84
2022/05/28 21:59:55;;;;;;;4.83;1.50;;;;;;;10.78;86.08;100135.03;3421372;84;99193;-83
2022/05/28 22:04:56;;;;;;;7.03;2.90;;;;;;;10.72;83.87;100136.00;3387192;84;98795;-82
2022/05/28 22:09:57;;;;;;;7.53;1.83;;;;;;;10.72;84.35;100137.38;3424041;84;31954;-82
2022/05/28 22:14:58;;;;;;;8.77;1.77;;;;;;;10.71;84.40;100137.17;3407357;84;99283;-89
2022/05/28 22:19:59;;;;;;;6.87;1.93;;;;;;;10.72;84.74;100137.95;3424963;84;98730;-87
2022/05/28 22:25:00;;;;;;;8.35;2.08;;;;;;;10.71;84.75;100133.05;3389583;83;98959;-88
2022/05/28 22:30:02;;;;;;;10.33;2.10;;;;;;;10.57;84.99;100106.80;3392063;84;99540;-88
2022/05/28 22:35:06;;;;;;;11.07;2.57;;;;;;;10.69;84.90;100120.23;3399474;84;99671;-89
2022/05/28 22:40:10;;;;;;;9.73;2.80;;;;;;;10.67;85.26;100122.59;3392170;84;31958;-90
2022/05/28 22:45:13;;;;;;;8.97;2.87;;;;;;;10.68;85.08;100117.89;3379374;84;99345;-88
2022/05/28 22:50:22;;;;;;;13.23;2.77;;;;;;;10.67;85.33;100115.72;3408033;84;99236;-88
2022/05/28 22:55:24;;;;;;;11.08;2.33;;;;;;;10.70;85.43;100118.29;3391142;84;99790;-89
2022/05/28 23:00:25;;;;;;;10.75;2.85;;;;;;;10.70;85.43;100108.66;3419565;84;99695;-87
2022/05/28 23:05:29;;;;;;;9.77;2.83;;;;;;;10.73;85.60;100110.63;3423053;84;99144;-89
2022/05/28 23:10:29;;;;;;;13.47;3.37;;;;;;;10.71;85.50;100108.27;3416407;84;99460;-88
2022/05/28 23:15:32;;;;;;;10.57;2.60;;;;;;;10.70;85.44;100105.33;3427328;84;99529;-88
2022/05/28 23:20:36;;;;;;;9.30;2.43;;;;;;;10.70;85.52;100108.08;3417800;84;99536;-89
2022/05/28 23:25:49;;;;;;;10.55;2.75;;;;;;;10.68;85.52;100104.13;3406751;84;99356;-89
2022/05/28 23:30:50;;;;;;;9.57;1.93;;;;;;;10.68;85.52;100104.13;3426260;84;108220;-90
2022/05/28 23:35:51;;;;;;;6.83;2.17;;;;;;;10.67;85.77;100104.70;3433281;83;99714;-89
2022/05/28 23:40:52;;;;;;;12.20;2.33;;;;;;;10.68;85.64;100109.03;3413168;84;99576;-89
2022/05/28 23:45:56;;;;;;;6.50;1.83;;;;;;;10.68;85.71;100100.00;3428790;84;32352;-88
2022/05/28 23:50:58;;;;;;;12.75;3.52;;;;;;;10.68;85.83;100102.15;3422974;84;99242;-88
2022/05/28 23:56:00;;;;;;;6.87;2.15;;;;;;;10.64;85.60;100099.19;3439466;84;99755;-88
